Terminal Aerodrome Forecast
Issued by NWS Upton, NY

Home | Current Version | Previous Version | Text Only | Print | Product List | Glossary On
Versions: 1 2 3 4 5 6 7 8 9 10 11 12 13 14 15 16 17 18 19 20 21 22 23 24 25 26 27 28 29 30 31 32
774
FTUS41 KOKX 262340
TAFJFK
TAF
KJFK 262340Z 2700/2806 09010KT 3SM -DZ BR OVC009
     FM270200 09007KT 2SM -DZ BR OVC006
     FM270800 09006KT 1SM -RADZ BR OVC004
     FM271400 17009KT 2SM -RA BR OVC006
     FM271600 19009KT 4SM -RA BR OVC015
     FM271900 20009KT P6SM BKN030
     FM272100 20008KT P6SM BKN050
     FM280300 18003KT 6SM -DZ BR BKN005 OVC030=

USA.gov is the U.S. government's official web portal to all federal, state and local government web resources and services.